PN30 weather

Schrenkel Airport
Cassville, Pennsylvania, United States

Public forecast

Using degrees Fahrenheit for public forecast. Weather courtesy of forecast.io.

METAR (pilot weather report)

Closest report is Altoona Blair County Airport, 10.2 nm (18.8 km) WNW. Retrieved 2019/05/25 03:53 UTC (27 minutes ago):

KAOO 250353Z AUTO 00000KT 10SM FEW080 BKN120 17/12 A3015 RMK AO2 SLP203 T01720122

TAF (pilot weather forecast)

Forecast is more than 12 hours old.

Closest forecast is Altoona Blair County Airport, 10.2 nm (18.8 km) WNW. Retrieved 2019/05/24 00:45 UTC (1 day ago):

TAF KAOO 242342Z 2500/2524 35006KT P6SM BKN100 FM250300 32006KT P6SM BKN250 FM251500 17006KT P6SM OVC050